Terminal Aerodrome Forecast
Issued by NWS Spokane, WA

Current Version | Previous Version | Text Only | Print | Product List | Glossary On
Versions: 1 2 3 4 5 6 7 8 9 10 11 12 13 14 15 16 17 18 19 20 21 22 23 24 25 26 27 28 29 30
000
FTUS46 KOTX 231735
TAFLWS
TAF
KLWS 231735Z 2318/2418 00000KT P6SM BKN070 BKN200
     FM232100 31006KT P6SM VCSH BKN080 BKN120
     FM240400 04004KT P6SM SCT080 SCT120
     FM241700 VRB03KT P6SM BKN080 BKN140=

USA.gov is the U.S. government's official web portal to all federal, state and local government web resources and services.